Time;durP1;ratioP1;P1;durP2;ratioP2;P2;SDS_P1;SDS_P2;PMS_P1;PMS_P2;Temp;Humidity;BMP_temperature;BMP_pressure;BME280_temperature;BME280_humidity;BME280_pressure;Samples;Min_cycle;Max_cycle;Signal;HPM_P1;HPM_P2
2021/11/15 00:00:23;;;;;;;74.95;30.63;;;8.00;99.90;;;;;;5048055;28;20082;-74
2021/11/15 00:02:50;;;;;;;76.50;32.65;;;7.90;99.90;;;;;;5049836;28;20037;-74
2021/11/15 00:05:15;;;;;;;76.80;31.13;;;7.90;99.90;;;;;;5049157;28;20025;-74
2021/11/15 00:07:41;;;;;;;73.63;30.17;;;7.90;99.90;;;;;;5055005;28;20044;-74
2021/11/15 00:10:09;;;;;;;84.97;33.17;;;7.90;99.90;;;;;;5053832;28;20077;-74
2021/11/15 00:12:35;;;;;;;74.38;30.55;;;7.90;99.90;;;;;;5054070;28;20056;-74
2021/11/15 00:15:00;;;;;;;69.95;30.08;;;7.90;99.90;;;;;;5053445;28;20059;-73
2021/11/15 00:17:27;;;;;;;80.07;31.55;;;7.90;99.90;;;;;;5047809;28;20022;-73
2021/11/15 00:19:53;;;;;;;75.00;29.02;;;7.90;99.90;;;;;;5052390;28;20025;-74
2021/11/15 00:22:18;;;;;;;77.45;31.27;;;7.90;99.90;;;;;;5049793;28;20074;-74
2021/11/15 00:24:44;;;;;;;78.53;31.63;;;7.90;99.90;;;;;;5051047;28;20074;-73
2021/11/15 00:27:10;;;;;;;81.93;32.63;;;7.90;99.90;;;;;;5047328;28;20043;-73
2021/11/15 00:29:35;;;;;;;77.72;30.63;;;7.90;99.90;;;;;;5052253;28;20332;-74
2021/11/15 00:32:01;;;;;;;77.07;31.02;;;7.90;99.90;;;;;;5057008;28;20021;-73
2021/11/15 00:34:27;;;;;;;77.05;30.67;;;7.90;99.90;;;;;;5053485;28;20386;-74
2021/11/15 00:36:52;;;;;;;81.55;30.25;;;7.90;99.90;;;;;;5055136;28;20119;-74
2021/11/15 00:39:18;;;;;;;73.38;29.92;;;7.90;99.90;;;;;;5055182;28;20036;-74
2021/11/15 00:41:44;;;;;;;81.90;33.60;;;7.80;99.90;;;;;;5053098;28;20136;-73
2021/11/15 00:44:10;;;;;;;84.72;32.28;;;7.90;99.90;;;;;;5053249;28;20087;-74
2021/11/15 00:46:36;;;;;;;81.40;32.40;;;7.90;99.90;;;;;;5050715;28;20040;-74
2021/11/15 00:49:02;;;;;;;82.55;31.55;;;7.90;99.90;;;;;;5051536;28;20029;-73
2021/11/15 00:51:29;;;;;;;81.22;32.17;;;7.90;99.90;;;;;;5053368;28;20025;-73
2021/11/15 00:53:56;;;;;;;81.68;32.25;;;7.90;99.90;;;;;;5051445;28;20451;-73
2021/11/15 00:56:22;;;;;;;79.65;30.45;;;7.90;99.90;;;;;;5051638;28;20380;-73
2021/11/15 00:58:48;;;;;;;87.65;33.72;;;7.80;99.90;;;;;;5050204;28;20029;-74
2021/11/15 01:01:14;;;;;;;80.88;29.75;;;7.80;99.90;;;;;;5056376;28;20052;-74
2021/11/15 01:03:40;;;;;;;85.40;31.95;;;7.80;99.90;;;;;;5052282;28;20822;-73
2021/11/15 01:06:06;;;;;;;83.82;31.65;;;7.80;99.90;;;;;;5051834;28;20017;-74
2021/11/15 01:08:32;;;;;;;85.75;32.67;;;7.80;99.90;;;;;;5048381;28;20103;-74
2021/11/15 01:10:58;;;;;;;78.32;31.10;;;7.80;99.90;;;;;;5049365;28;20055;-75
2021/11/15 01:13:24;;;;;;;78.43;31.45;;;7.70;99.90;;;;;;5060345;28;20024;-75
2021/11/15 01:15:51;;;;;;;83.28;30.23;;;7.80;99.90;;;;;;5051857;28;20514;-75
2021/11/15 01:18:17;;;;;;;87.50;33.05;;;7.80;99.90;;;;;;5052521;28;20044;-74
2021/11/15 01:20:43;;;;;;;84.13;30.52;;;7.80;99.90;;;;;;5051345;28;20033;-74
2021/11/15 01:23:10;;;;;;;78.63;31.10;;;7.80;99.90;;;;;;5048845;28;20111;-74
2021/11/15 01:25:40;;;;;;;80.60;32.35;;;7.80;99.90;;;;;;5058660;28;20021;-75
2021/11/15 01:28:06;;;;;;;79.38;30.25;;;7.80;99.90;;;;;;5053100;28;20112;-74
2021/11/15 01:30:32;;;;;;;83.68;31.05;;;7.80;99.90;;;;;;5053246;28;20107;-74
2021/11/15 01:32:58;;;;;;;88.65;31.00;;;7.80;99.90;;;;;;5052680;28;20029;-75
2021/11/15 01:35:25;;;;;;;86.95;32.53;;;7.80;99.90;;;;;;5057273;28;20028;-74
2021/11/15 01:37:52;;;;;;;71.75;30.25;;;7.80;99.90;;;;;;5048394;28;20425;-74
2021/11/15 01:40:21;;;;;;;81.32;31.08;;;7.70;99.90;;;;;;5048031;28;20028;-74
2021/11/15 01:42:47;;;;;;;78.05;31.40;;;7.80;99.90;;;;;;5053077;28;20035;-74
2021/11/15 01:45:17;;;;;;;84.63;32.40;;;7.80;99.90;;;;;;5051170;28;20025;-75
2021/11/15 01:47:44;;;;;;;82.22;32.03;;;7.80;99.90;;;;;;5052696;28;20051;-74
2021/11/15 01:50:15;;;;;;;83.88;32.92;;;7.80;99.90;;;;;;5055252;28;20868;-74
2021/11/15 01:52:42;;;;;;;84.82;32.45;;;7.80;99.90;;;;;;5052217;28;20025;-74
2021/11/15 01:55:08;;;;;;;90.65;33.55;;;7.80;99.90;;;;;;5053654;28;20017;-74
2021/11/15 01:57:34;;;;;;;86.85;31.83;;;7.80;99.90;;;;;;5050840;28;20040;-74
2021/11/15 02:00:00;;;;;;;85.93;32.65;;;7.80;99.90;;;;;;5055225;28;20486;-74
2021/11/15 02:02:26;;;;;;;83.78;31.08;;;7.80;99.90;;;;;;5053785;28;20116;-74
2021/11/15 02:04:57;;;;;;;83.60;33.92;;;7.80;99.90;;;;;;5051486;28;20029;-74
2021/11/15 02:07:25;;;;;;;84.88;32.60;;;7.80;99.90;;;;;;5051908;28;20040;-74
2021/11/15 02:09:51;;;;;;;86.82;34.50;;;7.80;99.90;;;;;;5052224;28;20091;-74
2021/11/15 02:12:17;;;;;;;75.15;32.92;;;7.80;99.90;;;;;;5051565;28;20479;-74
2021/11/15 02:14:43;;;;;;;82.72;32.15;;;7.80;99.90;;;;;;5053090;28;20044;-74
2021/11/15 02:17:09;;;;;;;83.70;32.78;;;7.80;99.90;;;;;;5048543;28;20029;-74
2021/11/15 02:19:35;;;;;;;88.47;33.55;;;7.80;99.90;;;;;;5047808;28;20040;-74
2021/11/15 02:22:01;;;;;;;89.38;33.53;;;7.80;99.90;;;;;;5046688;28;20505;-74
2021/11/15 02:24:27;;;;;;;90.15;33.40;;;7.80;99.90;;;;;;5053694;28;20036;-74
2021/11/15 02:26:53;;;;;;;80.50;32.50;;;7.80;99.90;;;;;;5048163;28;20043;-74
2021/11/15 02:29:19;;;;;;;81.40;32.92;;;7.70;99.90;;;;;;5052489;28;20100;-75
2021/11/15 02:31:45;;;;;;;82.95;32.50;;;7.80;99.90;;;;;;5046672;28;20393;-75
2021/11/15 02:34:11;;;;;;;89.28;36.33;;;7.80;99.90;;;;;;5051203;28;20379;-74
2021/11/15 02:36:38;;;;;;;81.63;32.80;;;7.80;99.90;;;;;;5051192;28;20386;-75
2021/11/15 02:39:05;;;;;;;86.07;33.08;;;7.80;99.90;;;;;;5053229;28;20043;-75
2021/11/15 02:41:31;;;;;;;88.45;34.95;;;7.80;99.90;;;;;;5051836;28;20025;-74
2021/11/15 02:43:58;;;;;;;81.72;33.28;;;7.70;99.90;;;;;;5052241;28;20024;-74
2021/11/15 02:46:25;;;;;;;84.28;32.60;;;7.80;99.90;;;;;;5051253;28;20017;-74
2021/11/15 02:48:50;;;;;;;91.93;34.28;;;7.70;99.90;;;;;;5048691;28;20062;-74
2021/11/15 02:51:16;;;;;;;84.28;34.10;;;7.80;99.90;;;;;;5045794;28;20024;-74
2021/11/15 02:53:43;;;;;;;85.35;32.30;;;7.70;99.90;;;;;;5052656;28;20021;-74
2021/11/15 02:56:09;;;;;;;91.30;34.58;;;7.70;99.90;;;;;;5053184;28;20099;-74
2021/11/15 02:58:35;;;;;;;83.43;33.53;;;7.70;99.90;;;;;;5052487;28;20104;-74
2021/11/15 03:01:08;;;;;;;80.07;32.35;;;7.70;99.90;;;;;;5052322;28;20071;-74
2021/11/15 03:03:34;;;;;;;76.32;30.45;;;7.70;99.90;;;;;;5047104;28;20021;-73
2021/11/15 03:06:00;;;;;;;90.07;34.35;;;7.70;99.90;;;;;;5045966;28;20029;-75
2021/11/15 03:08:26;;;;;;;84.32;32.40;;;7.70;99.90;;;;;;5046980;28;20497;-74
2021/11/15 03:10:58;;;;;;;84.97;32.58;;;7.70;99.90;;;;;;5050308;28;20060;-74
2021/11/15 03:13:25;;;;;;;87.57;32.45;;;7.70;99.90;;;;;;5048838;28;21715;-74
2021/11/15 03:15:53;;;;;;;90.90;33.47;;;7.70;99.90;;;;;;5057126;28;20025;-74
2021/11/15 03:18:25;;;;;;;94.72;34.30;;;7.70;99.90;;;;;;5044408;28;20023;-74
2021/11/15 03:21:05;;;;;;;92.15;34.33;;;7.60;99.90;;;;;;5045976;28;20372;-74
2021/11/15 03:23:35;;;;;;;83.57;33.55;;;7.60;99.90;;;;;;5058076;28;20502;-75
2021/11/15 03:26:01;;;;;;;85.30;31.27;;;7.70;99.90;;;;;;5053203;28;20032;-74
2021/11/15 03:28:32;;;;;;;82.18;31.20;;;7.70;99.90;;;;;;5046053;28;20047;-74
2021/11/15 03:31:01;;;;;;;76.95;31.00;;;7.70;99.90;;;;;;5044728;28;20079;-74
2021/11/15 03:33:28;;;;;;;76.43;28.92;;;7.70;99.90;;;;;;5048381;28;20032;-74
2021/11/15 03:35:54;;;;;;;83.53;33.20;;;7.70;99.90;;;;;;5053521;28;20091;-74
2021/11/15 03:38:20;;;;;;;80.40;32.60;;;7.70;99.90;;;;;;5048865;28;20037;-74
2021/11/15 03:40:46;;;;;;;85.90;33.05;;;7.70;99.90;;;;;;5054381;28;20028;-73
2021/11/15 03:43:12;;;;;;;76.78;30.13;;;7.70;99.90;;;;;;5049809;28;20036;-74
2021/11/15 03:45:39;;;;;;;83.15;32.53;;;7.70;99.90;;;;;;5051752;28;20116;-74
2021/11/15 03:48:07;;;;;;;85.28;31.10;;;7.70;99.90;;;;;;5050440;28;20033;-74
2021/11/15 03:50:33;;;;;;;80.22;32.08;;;7.70;99.90;;;;;;5045564;28;20116;-74
2021/11/15 03:53:00;;;;;;;85.50;31.50;;;7.70;99.90;;;;;;5050661;28;20092;-74
2021/11/15 03:55:26;;;;;;;86.10;31.38;;;7.70;99.90;;;;;;5052704;28;20024;-75
2021/11/15 03:57:53;;;;;;;77.93;30.73;;;7.60;99.90;;;;;;5048208;28;20025;-74
2021/11/15 04:00:23;;;;;;;82.22;32.05;;;7.60;99.90;;;;;;5048938;28;20021;-74
2021/11/15 04:02:53;;;;;;;83.90;29.63;;;7.60;99.90;;;;;;5050704;28;20495;-74
2021/11/15 04:05:32;;;;;;;79.60;30.50;;;7.50;99.90;;;;;;5048624;28;20043;-74
2021/11/15 04:08:00;;;;;;;79.25;31.20;;;7.60;99.90;;;;;;5046178;28;20080;-74
2021/11/15 04:10:33;;;;;;;78.05;29.33;;;7.50;99.90;;;;;;5048086;28;20052;-74
2021/11/15 04:13:07;;;;;;;74.93;29.65;;;7.50;99.90;;;;;;5033488;28;20063;-74
2021/11/15 04:15:33;;;;;;;77.03;29.35;;;7.40;99.90;;;;;;5051704;28;20816;-74
2021/11/15 04:18:01;;;;;;;73.90;28.83;;;7.40;99.90;;;;;;5030577;28;20036;-75
2021/11/15 04:20:31;;;;;;;75.38;29.65;;;7.50;99.90;;;;;;5049400;28;20521;-75
2021/11/15 04:22:57;;;;;;;77.85;30.92;;;7.40;99.90;;;;;;5052248;28;20475;-74
2021/11/15 04:25:22;;;;;;;74.47;30.15;;;7.40;99.90;;;;;;5050390;28;20029;-75
2021/11/15 04:27:48;;;;;;;70.68;28.70;;;7.30;99.90;;;;;;5046356;28;20032;-74
2021/11/15 04:30:14;;;;;;;70.80;27.73;;;7.30;99.90;;;;;;5052393;28;20028;-75
2021/11/15 04:32:44;;;;;;;77.97;30.20;;;7.40;99.90;;;;;;5052380;28;20104;-74
2021/11/15 04:35:14;;;;;;;72.28;28.90;;;7.40;99.90;;;;;;5048145;28;20383;-74
2021/11/15 04:37:40;;;;;;;75.35;29.40;;;7.40;99.90;;;;;;5048160;28;20398;-74
2021/11/15 04:40:07;;;;;;;72.35;27.58;;;7.40;99.90;;;;;;5042432;28;20033;-75
2021/11/15 04:42:34;;;;;;;69.75;29.27;;;7.40;99.90;;;;;;5053826;28;20048;-75
2021/11/15 04:45:00;;;;;;;68.78;26.55;;;7.40;99.90;;;;;;5048306;28;20036;-74
2021/11/15 04:47:26;;;;;;;77.63;30.15;;;7.40;99.90;;;;;;5049479;28;20029;-74
2021/11/15 04:49:53;;;;;;;77.47;30.45;;;7.40;99.90;;;;;;5048447;28;20055;-74
2021/11/15 04:52:19;;;;;;;77.93;29.75;;;7.40;99.90;;;;;;5051623;28;20459;-74
2021/11/15 04:54:45;;;;;;;78.45;30.10;;;7.40;99.90;;;;;;5052657;28;20493;-75
2021/11/15 04:57:11;;;;;;;82.70;31.58;;;7.40;99.90;;;;;;5045908;28;20061;-74
2021/11/15 04:59:36;;;;;;;87.60;32.30;;;7.40;99.90;;;;;;5048984;28;20039;-74
2021/11/15 05:02:02;;;;;;;72.72;32.17;;;7.40;99.90;;;;;;5041727;28;20032;-74
2021/11/15 05:04:28;;;;;;;76.93;30.40;;;7.40;99.90;;;;;;5049581;28;20061;-74
2021/11/15 05:06:54;;;;;;;82.03;31.02;;;7.40;99.90;;;;;;5045823;28;20738;-74
2021/11/15 05:09:21;;;;;;;74.10;31.10;;;7.30;99.90;;;;;;5041475;28;20057;-74
2021/11/15 05:11:47;;;;;;;75.47;30.40;;;7.30;99.90;;;;;;5046607;28;20037;-74
2021/11/15 05:14:12;;;;;;;75.35;30.33;;;7.30;99.90;;;;;;5045828;28;20017;-74
2021/11/15 05:16:38;;;;;;;81.40;30.25;;;7.30;99.90;;;;;;5057281;28;20394;-74
2021/11/15 05:19:04;;;;;;;76.57;32.53;;;7.30;99.90;;;;;;5047140;28;20020;-74
2021/11/15 05:21:30;;;;;;;84.80;32.03;;;7.30;99.90;;;;;;5042290;28;20092;-74
2021/11/15 05:23:56;;;;;;;76.60;30.58;;;7.30;99.90;;;;;;5048846;28;20021;-74
2021/11/15 05:26:23;;;;;;;80.53;31.65;;;7.30;99.90;;;;;;5052953;28;20055;-74
2021/11/15 05:28:49;;;;;;;81.85;32.08;;;7.30;99.90;;;;;;5049835;28;20025;-74
2021/11/15 05:31:14;;;;;;;80.72;32.40;;;7.30;99.90;;;;;;5055828;28;20108;-74
2021/11/15 05:33:40;;;;;;;76.93;31.45;;;7.20;99.90;;;;;;5060510;28;20017;-75
2021/11/15 05:36:06;;;;;;;78.53;30.77;;;7.20;99.90;;;;;;5056867;28;20478;-74
2021/11/15 05:38:33;;;;;;;70.22;29.27;;;7.20;99.90;;;;;;5047748;28;20033;-74
2021/11/15 05:40:59;;;;;;;73.18;29.20;;;7.20;99.90;;;;;;5055658;28;20051;-74
2021/11/15 05:43:25;;;;;;;74.15;29.20;;;7.20;99.90;;;;;;5047592;28;20486;-74
2021/11/15 05:45:51;;;;;;;69.07;28.50;;;7.30;99.90;;;;;;5047873;28;20036;-74
2021/11/15 05:48:17;;;;;;;66.95;28.33;;;7.30;99.90;;;;;;5047601;28;20025;-74
2021/11/15 05:50:43;;;;;;;68.00;28.75;;;7.30;99.90;;;;;;5046578;28;20116;-74
2021/11/15 05:53:09;;;;;;;61.88;27.52;;;7.30;99.90;;;;;;5049441;28;20132;-74
2021/11/15 05:55:35;;;;;;;65.85;27.85;;;7.30;99.90;;;;;;5045235;28;20032;-74
2021/11/15 05:58:01;;;;;;;65.85;28.55;;;7.30;99.90;;;;;;5040563;28;20083;-74
2021/11/15 06:00:29;;;;;;;63.90;28.08;;;7.30;99.90;;;;;;5046298;28;20048;-75
2021/11/15 06:02:55;;;;;;;54.75;26.60;;;7.30;99.90;;;;;;5045335;28;20033;-74
2021/11/15 06:05:22;;;;;;;58.55;26.35;;;7.30;99.90;;;;;;5045800;28;20028;-74
2021/11/15 06:07:48;;;;;;;58.80;25.17;;;7.30;99.90;;;;;;5044168;28;20029;-74
2021/11/15 06:10:15;;;;;;;59.03;26.25;;;7.30;99.90;;;;;;5050881;28;20025;-75
2021/11/15 06:12:41;;;;;;;59.42;25.98;;;7.30;99.90;;;;;;5046171;28;20017;-75
2021/11/15 06:15:09;;;;;;;61.47;27.40;;;7.30;99.90;;;;;;5043810;28;20143;-74
2021/11/15 06:17:35;;;;;;;54.03;24.90;;;7.30;99.90;;;;;;5043990;28;20086;-75
2021/11/15 06:20:01;;;;;;;57.38;25.95;;;7.30;99.90;;;;;;5043882;28;20037;-75
2021/11/15 06:22:27;;;;;;;55.72;25.77;;;7.30;99.90;;;;;;5041936;28;20037;-75
2021/11/15 06:24:52;;;;;;;57.97;26.15;;;7.30;99.90;;;;;;5047505;28;20087;-75
2021/11/15 06:27:18;;;;;;;56.63;25.90;;;7.30;99.90;;;;;;5045868;28;20104;-75
2021/11/15 06:29:45;;;;;;;59.35;26.45;;;7.30;99.90;;;;;;5043104;28;20391;-75
2021/11/15 06:32:12;;;;;;;45.88;21.95;;;7.30;99.90;;;;;;5044160;28;20029;-75
2021/11/15 06:34:38;;;;;;;53.50;25.75;;;7.40;99.90;;;;;;5046820;28;20036;-75
2021/11/15 06:37:04;;;;;;;58.33;27.52;;;7.50;99.90;;;;;;5047329;28;20356;-74
2021/11/15 06:39:30;;;;;;;53.67;24.52;;;7.50;99.90;;;;;;5037768;28;20029;-75
2021/11/15 06:41:57;;;;;;;51.95;24.80;;;7.60;99.90;;;;;;5041399;28;20047;-75
2021/11/15 06:44:25;;;;;;;57.78;26.33;;;7.50;99.90;;;;;;5044558;28;20033;-75
2021/11/15 06:46:51;;;;;;;56.13;24.75;;;7.60;99.90;;;;;;5044732;28;20040;-75
2021/11/15 06:49:17;;;;;;;57.97;27.10;;;7.50;99.90;;;;;;5046168;28;20051;-74
2021/11/15 06:51:45;;;;;;;55.55;25.65;;;7.50;99.90;;;;;;5048357;28;20108;-75
2021/11/15 06:54:11;;;;;;;58.28;25.70;;;7.40;99.90;;;;;;5046051;28;20033;-75
2021/11/15 06:56:37;;;;;;;58.47;25.70;;;7.40;99.90;;;;;;5048553;28;20060;-75
2021/11/15 06:59:03;;;;;;;58.20;25.17;;;7.50;99.90;;;;;;5044787;28;20048;-76
2021/11/15 07:01:29;;;;;;;51.17;24.77;;;7.50;99.90;;;;;;5071973;28;20028;-75
2021/11/15 07:03:54;;;;;;;57.50;25.33;;;7.40;99.90;;;;;;5046463;28;20036;-74
2021/11/15 07:06:20;;;;;;;52.13;25.27;;;7.50;99.90;;;;;;5044881;28;20040;-75
2021/11/15 07:08:47;;;;;;;54.53;24.83;;;7.50;99.90;;;;;;5048251;28;20116;-75
2021/11/15 07:11:13;;;;;;;55.90;25.65;;;7.50;99.90;;;;;;5048410;28;20037;-75
2021/11/15 07:13:39;;;;;;;53.47;24.77;;;7.40;99.90;;;;;;5050118;28;20025;-74
2021/11/15 07:16:05;;;;;;;53.42;24.73;;;7.50;99.90;;;;;;5046497;28;20730;-75
2021/11/15 07:18:32;;;;;;;54.30;26.02;;;7.50;99.90;;;;;;5042307;28;20649;-75
2021/11/15 07:21:00;;;;;;;56.35;25.40;;;7.50;99.90;;;;;;5046567;28;20029;-74
2021/11/15 07:23:26;;;;;;;54.38;24.40;;;7.50;99.90;;;;;;5046692;28;20144;-76
2021/11/15 07:25:54;;;;;;;53.40;25.92;;;7.50;99.90;;;;;;5051333;28;20099;-76
2021/11/15 07:28:20;;;;;;;55.72;26.35;;;7.50;99.90;;;;;;5045384;28;20100;-76
2021/11/15 07:30:48;;;;;;;50.50;24.50;;;7.50;99.90;;;;;;5051491;28;20071;-76
2021/11/15 07:33:15;;;;;;;52.13;24.80;;;7.50;99.90;;;;;;5048975;28;20028;-76
2021/11/15 07:35:41;;;;;;;56.60;25.23;;;7.60;99.90;;;;;;5052416;28;20028;-78
2021/11/15 07:38:07;;;;;;;54.38;25.60;;;7.60;99.90;;;;;;5048177;28;20076;-77
2021/11/15 07:40:34;;;;;;;57.38;26.10;;;7.60;99.90;;;;;;5052877;28;20029;-77
2021/11/15 07:43:00;;;;;;;51.00;24.60;;;7.60;99.90;;;;;;5050291;28;20376;-76
2021/11/15 07:45:26;;;;;;;51.72;24.88;;;7.50;99.90;;;;;;5051562;28;20027;-77
2021/11/15 07:47:51;;;;;;;53.42;25.35;;;7.50;99.90;;;;;;5046381;28;20033;-78
2021/11/15 07:50:17;;;;;;;53.80;24.75;;;7.50;99.90;;;;;;5044629;28;20112;-77
2021/11/15 07:52:43;;;;;;;49.97;24.17;;;7.50;99.90;;;;;;5052574;28;20029;-77
2021/11/15 07:55:12;;;;;;;54.40;23.75;;;7.60;99.90;;;;;;5055771;28;20040;-77
2021/11/15 07:57:41;;;;;;;51.47;23.98;;;7.60;99.90;;;;;;5047948;28;20525;-76
2021/11/15 08:00:10;;;;;;;49.28;24.80;;;7.60;99.90;;;;;;5048154;28;20409;-78
2021/11/15 08:02:37;;;;;;;52.03;23.98;;;7.60;99.90;;;;;;5047651;28;20063;-77
2021/11/15 08:05:03;;;;;;;48.25;24.75;;;7.60;99.90;;;;;;5044298;28;20032;-76
2021/11/15 08:07:29;;;;;;;53.05;24.90;;;7.60;99.90;;;;;;5049372;28;20071;-76
2021/11/15 08:09:55;;;;;;;49.30;24.55;;;7.60;99.90;;;;;;5058289;28;20064;-77
2021/11/15 08:12:21;;;;;;;52.50;24.77;;;7.60;99.90;;;;;;5053094;28;20029;-77
2021/11/15 08:14:48;;;;;;;49.95;24.42;;;7.60;99.90;;;;;;5053802;28;20028;-77
2021/11/15 08:17:13;;;;;;;49.70;23.30;;;7.60;99.90;;;;;;5050225;28;20035;-77
2021/11/15 08:19:40;;;;;;;54.65;25.60;;;7.70;99.90;;;;;;5046319;28;20490;-76
2021/11/15 08:22:07;;;;;;;50.08;23.50;;;7.60;99.90;;;;;;5045927;28;20365;-76
2021/11/15 08:24:38;;;;;;;56.15;26.63;;;7.60;99.90;;;;;;5050821;28;20017;-77
2021/11/15 08:27:05;;;;;;;50.22;24.05;;;7.60;99.90;;;;;;5047995;28;20036;-76
2021/11/15 08:29:33;;;;;;;53.13;25.65;;;7.60;99.90;;;;;;5045873;28;20098;-77
2021/11/15 08:32:05;;;;;;;53.33;24.67;;;7.60;99.90;;;;;;5044040;28;20045;-76
2021/11/15 08:34:31;;;;;;;49.88;23.85;;;7.60;99.90;;;;;;5049106;28;20031;-76
2021/11/15 08:36:57;;;;;;;52.58;24.55;;;7.60;99.90;;;;;;5047776;28;20025;-77
2021/11/15 08:39:25;;;;;;;53.35;24.50;;;7.60;99.90;;;;;;5044677;28;20994;-77
2021/11/15 08:41:56;;;;;;;52.13;26.67;;;7.60;99.90;;;;;;5047444;28;20036;-75
2021/11/15 08:44:26;;;;;;;53.53;26.20;;;7.60;99.90;;;;;;5043470;28;20052;-76
2021/11/15 08:46:55;;;;;;;48.60;23.67;;;7.60;99.90;;;;;;5053446;28;20032;-77
2021/11/15 08:49:29;;;;;;;50.35;24.67;;;7.60;99.90;;;;;;5048528;28;20110;-75
2021/11/15 08:51:57;;;;;;;54.65;26.23;;;7.60;99.90;;;;;;5053358;28;20111;-75
2021/11/15 08:54:23;;;;;;;52.53;25.40;;;7.60;99.90;;;;;;5054048;28;20029;-76
2021/11/15 08:56:54;;;;;;;55.90;27.70;;;7.60;99.90;;;;;;5053103;28;20028;-75
2021/11/15 08:59:20;;;;;;;53.72;25.83;;;7.60;99.90;;;;;;5060629;28;20023;-75
2021/11/15 09:01:46;;;;;;;52.10;26.05;;;7.60;99.90;;;;;;5059781;28;20025;-76
2021/11/15 09:04:13;;;;;;;51.50;25.42;;;7.60;99.90;;;;;;5056962;28;20415;-76
2021/11/15 09:06:40;;;;;;;58.80;26.42;;;7.60;99.90;;;;;;5052147;28;20029;-76
2021/11/15 09:09:10;;;;;;;55.28;26.95;;;7.60;99.90;;;;;;5052080;28;20040;-76
2021/11/15 09:11:36;;;;;;;56.85;26.70;;;7.60;99.90;;;;;;5053135;28;20067;-76
2021/11/15 09:14:03;;;;;;;52.92;25.40;;;7.60;99.90;;;;;;5043146;28;20020;-76
2021/11/15 09:16:29;;;;;;;56.65;25.27;;;7.60;99.90;;;;;;5051073;28;20025;-75
2021/11/15 09:18:55;;;;;;;57.35;27.55;;;7.60;99.90;;;;;;5056787;28;20037;-76
2021/11/15 09:21:21;;;;;;;51.17;24.33;;;7.60;99.90;;;;;;5059134;28;20041;-75
2021/11/15 09:23:47;;;;;;;59.78;28.30;;;7.60;99.90;;;;;;5054738;28;20029;-76
2021/11/15 09:26:17;;;;;;;52.58;24.77;;;7.60;99.90;;;;;;5059542;28;20557;-76
2021/11/15 09:28:43;;;;;;;53.85;25.60;;;7.60;99.90;;;;;;5054224;28;20041;-76
2021/11/15 09:31:09;;;;;;;49.13;24.33;;;7.60;99.90;;;;;;5058299;28;20021;-76
2021/11/15 09:33:35;;;;;;;57.30;27.67;;;7.60;99.90;;;;;;5053415;28;20021;-76
2021/11/15 09:36:02;;;;;;;55.35;26.52;;;7.60;99.90;;;;;;5061089;28;20100;-76
2021/11/15 09:38:28;;;;;;;51.85;25.85;;;7.60;99.90;;;;;;5058601;28;20074;-76
2021/11/15 09:41:07;;;;;;;49.28;25.35;;;7.70;99.90;;;;;;5051634;28;20119;-76
2021/11/15 09:43:35;;;;;;;57.10;27.13;;;7.60;99.90;;;;;;5057502;28;20049;-76
2021/11/15 09:46:07;;;;;;;51.72;25.25;;;7.60;99.90;;;;;;5048589;28;20096;-76
2021/11/15 09:48:34;;;;;;;45.58;23.98;;;7.60;99.90;;;;;;5050554;28;20037;-76
2021/11/15 09:51:02;;;;;;;53.20;26.83;;;7.60;99.90;;;;;;5059167;28;20399;-75
2021/11/15 09:53:30;;;;;;;51.20;24.45;;;7.60;99.90;;;;;;5055014;28;20067;-74
2021/11/15 09:55:56;;;;;;;49.38;24.83;;;7.70;99.90;;;;;;5054882;28;20482;-75
2021/11/15 09:58:23;;;;;;;50.20;24.20;;;7.70;99.90;;;;;;5057598;28;20024;-76
2021/11/15 10:00:49;;;;;;;49.67;25.45;;;7.70;99.90;;;;;;5054506;28;20086;-75
2021/11/15 10:03:16;;;;;;;47.40;24.58;;;7.70;99.90;;;;;;5050311;28;20052;-76
2021/11/15 10:05:44;;;;;;;49.50;24.52;;;7.70;99.90;;;;;;5060358;28;20503;-76
2021/11/15 10:08:12;;;;;;;54.17;25.98;;;7.60;99.90;;;;;;5055023;28;20111;-76
2021/11/15 10:10:43;;;;;;;44.72;23.58;;;7.60;99.90;;;;;;5051581;28;20399;-75
2021/11/15 10:13:18;;;;;;;48.92;24.33;;;7.70;99.90;;;;;;5057439;28;20017;-76
2021/11/15 10:15:55;;;;;;;50.35;24.83;;;7.70;99.90;;;;;;5046391;28;20025;-75
2021/11/15 10:18:35;;;;;;;49.88;24.70;;;7.70;99.90;;;;;;5053333;28;20593;-76
2021/11/15 10:21:07;;;;;;;49.28;23.85;;;7.70;99.90;;;;;;5055275;28;20057;-76
2021/11/15 10:23:36;;;;;;;49.30;24.00;;;7.80;99.90;;;;;;5051933;28;20028;-76
2021/11/15 10:26:39;;;;;;;51.95;24.52;;;7.90;99.90;;;;;;5052178;28;20029;-76
2021/11/15 10:29:42;;;;;;;49.28;23.73;;;7.90;99.90;;;;;;5050101;28;20073;-76
2021/11/15 10:32:10;;;;;;;51.13;23.92;;;7.90;99.90;;;;;;5048295;28;20037;-76
2021/11/15 10:34:40;;;;;;;49.38;24.52;;;7.80;99.90;;;;;;5052369;28;20043;-76
2021/11/15 10:37:18;;;;;;;49.70;24.17;;;7.90;99.90;;;;;;5050820;28;20029;-76
2021/11/15 10:39:49;;;;;;;52.10;24.90;;;7.90;99.90;;;;;;5057854;28;20809;-76
2021/11/15 10:42:19;;;;;;;;;;;7.90;99.90;;;;;;5043211;28;20032;-75
2021/11/15 10:44:47;;;;;;;43.67;21.85;;;7.90;99.90;;;;;;5050987;28;19952;-76
2021/11/15 10:47:13;;;;;;;46.40;23.10;;;7.90;99.90;;;;;;5048800;28;20104;-75
2021/11/15 10:49:40;;;;;;;48.22;24.23;;;7.90;99.90;;;;;;5048666;28;20029;-75
2021/11/15 10:52:12;;;;;;;50.40;24.08;;;7.90;99.90;;;;;;5049942;28;20467;-76
2021/11/15 10:57:16;;;;;;;44.22;23.15;;;7.90;99.90;;;;;;5055666;28;20037;-75
2021/11/15 10:59:42;;;;;;;41.67;21.98;;;7.90;99.90;;;;;;5049139;28;20494;-75
2021/11/15 11:02:28;;;;;;;45.88;24.08;;;7.90;99.90;;;;;;5049610;28;20024;-75
2021/11/15 11:05:08;;;;;;;46.45;22.98;;;7.90;99.90;;;;;;5065435;28;20075;-76
2021/11/15 11:07:36;;;;;;;46.05;22.10;;;7.90;99.90;;;;;;5050165;28;20035;-76
2021/11/15 11:10:07;;;;;;;44.33;22.55;;;7.90;99.90;;;;;;5049175;28;20032;-76
2021/11/15 11:12:46;;;;;;;43.40;22.15;;;8.00;99.90;;;;;;5048741;28;20471;-77
2021/11/15 11:15:22;;;;;;;45.45;22.83;;;8.00;99.90;;;;;;5064758;28;20052;-78
2021/11/15 11:18:09;;;;;;;44.00;22.20;;;8.00;99.90;;;;;;5053053;28;20029;-76
2021/11/15 11:25:53;;;;;;;45.67;22.85;;;7.90;99.90;;;;;;5050144;28;20029;-77
2021/11/15 11:28:31;;;;;;;41.13;21.35;;;7.90;99.90;;;;;;5046127;28;20025;-82
2021/11/15 11:30:59;;;;;;;43.58;22.38;;;7.90;99.90;;;;;;5044829;28;20029;-78
2021/11/15 11:33:30;;;;;;;38.95;20.20;;;8.00;99.90;;;;;;5048149;28;20394;-76
2021/11/15 11:35:56;;;;;;;41.47;21.48;;;8.00;99.90;;;;;;5046900;28;20056;-76
2021/11/15 11:38:22;;;;;;;43.85;23.20;;;8.10;99.90;;;;;;5049846;28;20075;-76
2021/11/15 11:40:50;;;;;;;44.42;21.50;;;8.10;99.90;;;;;;5049196;28;20029;-76
2021/11/15 11:43:17;;;;;;;40.17;21.73;;;8.10;99.90;;;;;;5048445;28;20430;-77
2021/11/15 11:45:46;;;;;;;45.80;22.90;;;8.10;99.90;;;;;;5047083;28;20033;-76
2021/11/15 11:48:14;;;;;;;44.90;21.92;;;8.00;99.90;;;;;;5050935;28;20024;-75
2021/11/15 11:50:49;;;;;;;59.35;30.83;;;8.00;99.90;;;;;;5049985;28;20511;-74
2021/11/15 11:53:20;;;;;;;60.42;30.90;;;8.00;99.90;;;;;;5050163;28;20494;-76
2021/11/15 11:55:47;;;;;;;45.80;22.33;;;8.00;99.90;;;;;;5049887;28;20063;-76
2021/11/15 11:58:34;;;;;;;42.15;22.30;;;8.00;99.90;;;;;;5047431;28;20021;-76
2021/11/15 12:01:17;;;;;;;48.03;23.13;;;8.00;99.90;;;;;;5048063;28;20032;-76
2021/11/15 12:04:21;;;;;;;43.00;22.73;;;8.00;99.90;;;;;;5046628;28;20554;-77
2021/11/15 12:06:49;;;;;;;40.70;22.02;;;8.00;99.90;;;;;;5049609;28;20037;-76
2021/11/15 12:09:16;;;;;;;42.80;21.67;;;7.90;99.90;;;;;;5047111;28;20491;-77
2021/11/15 12:12:00;;;;;;;44.63;21.70;;;8.00;99.90;;;;;;5045686;28;20032;-76
2021/11/15 12:14:41;;;;;;;44.35;23.05;;;8.00;99.90;;;;;;5047081;28;20119;-77
2021/11/15 12:17:12;;;;;;;42.07;21.60;;;8.10;99.90;;;;;;5048962;28;20091;-76
2021/11/15 12:19:47;;;;;;;;;;;8.00;99.90;;;;;;5048277;28;20033;-76
2021/11/15 12:22:18;;;;;;;42.53;20.88;;;8.00;99.90;;;;;;5048206;28;19923;-77
2021/11/15 12:25:08;;;;;;;48.08;25.17;;;8.00;99.90;;;;;;5047965;28;20079;-76
2021/11/15 12:27:53;;;;;;;121.10;47.33;;;8.00;99.90;;;;;;5047004;28;20395;-76
2021/11/15 12:30:26;;;;;;;111.28;45.83;;;8.00;99.90;;;;;;5043974;28;20124;-76
2021/11/15 12:33:17;;;;;;;51.53;24.50;;;8.10;99.90;;;;;;5047750;28;20449;-76
2021/11/15 12:36:01;;;;;;;46.90;23.77;;;8.10;99.90;;;;;;5045696;28;20045;-76
2021/11/15 12:38:29;;;;;;;49.17;23.55;;;8.00;99.90;;;;;;5046742;28;20037;-76
2021/11/15 12:40:55;;;;;;;47.17;22.85;;;8.00;99.90;;;;;;5045339;28;20429;-77
2021/11/15 12:43:21;;;;;;;46.85;23.17;;;7.90;99.90;;;;;;5047489;28;20051;-77
2021/11/15 12:46:12;;;;;;;49.97;24.15;;;7.90;99.90;;;;;;5047977;28;20029;-77
2021/11/15 12:48:42;;;;;;;49.55;24.80;;;7.90;99.90;;;;;;5047610;28;20454;-77
2021/11/15 12:51:20;;;;;;;47.80;22.20;;;7.90;99.90;;;;;;5046734;28;20078;-77